createdAt,value
2023-03-17T00:01:51.663Z,66.16
2023-03-17T00:04:20.330Z,66.19
2023-03-17T00:06:48.921Z,66.22
2023-03-17T00:09:18.142Z,66.19
2023-03-17T00:11:47.110Z,66.27
2023-03-17T00:14:16.922Z,66.18
2023-03-17T00:16:48.684Z,66.04
2023-03-17T00:19:18.200Z,66.36
2023-03-17T00:21:47.212Z,66.32
2023-03-17T00:24:16.147Z,66.19
2023-03-17T00:26:44.777Z,66.26
2023-03-17T00:29:13.691Z,66.15
2023-03-17T00:31:45.472Z,66.25
2023-03-17T00:34:16.911Z,66.15
2023-03-17T00:36:49.835Z,66.03
2023-03-17T00:39:18.861Z,65.96
2023-03-17T00:41:50.745Z,65.98
2023-03-17T00:44:20.560Z,65.99
2023-03-17T00:46:48.785Z,65.95
2023-03-17T00:51:46.109Z,65.82
2023-03-17T00:54:16.967Z,65.78
2023-03-17T00:56:46.221Z,65.77
2023-03-17T00:59:14.653Z,65.77
2023-03-17T01:01:44.809Z,65.78
2023-03-17T01:04:13.162Z,65.84
2023-03-17T01:06:41.445Z,65.86
2023-03-17T01:09:12.982Z,65.78
2023-03-17T01:11:42.405Z,65.66
2023-03-17T01:14:12.012Z,65.74
2023-03-17T01:16:40.989Z,65.79
2023-03-17T01:19:10.237Z,65.72
2023-03-17T01:21:39.418Z,65.68
2023-03-17T01:24:08.523Z,65.55
2023-03-17T01:26:36.601Z,65.65
2023-03-17T01:29:06.443Z,65.51
2023-03-17T01:31:35.035Z,65.48
2023-03-17T01:34:04.483Z,65.47
2023-03-17T01:36:32.489Z,65.56
2023-03-17T01:39:00.872Z,65.40
2023-03-17T01:41:29.053Z,65.30
2023-03-17T01:43:57.746Z,65.25
2023-03-17T01:46:30.352Z,64.75
2023-03-17T01:49:07.613Z,64.79
2023-03-17T01:51:55.551Z,64.66
2023-03-17T01:54:28.420Z,64.67
2023-03-17T01:56:58.965Z,64.64
2023-03-17T01:59:28.881Z,64.54
2023-03-17T02:02:03.111Z,64.29
2023-03-17T02:04:31.964Z,63.96
2023-03-17T02:07:00.694Z,64.01
2023-03-17T02:09:29.170Z,63.90
2023-03-17T02:11:58.892Z,63.96
2023-03-17T02:14:27.786Z,63.75
2023-03-17T02:16:56.434Z,63.91
2023-03-17T02:19:25.133Z,63.85
2023-03-17T02:21:55.199Z,63.87
2023-03-17T02:24:32.681Z,64.11
2023-03-17T02:27:04.138Z,64.09
2023-03-17T02:29:35.180Z,64.24
2023-03-17T02:32:04.449Z,64.45
2023-03-17T02:34:33.498Z,64.96
2023-03-17T02:37:01.568Z,65.61
2023-03-17T02:39:32.504Z,66.24
2023-03-17T02:42:01.401Z,66.50
2023-03-17T02:44:30.604Z,67.38
2023-03-17T02:46:59.609Z,67.36
2023-03-17T02:49:28.702Z,66.97
2023-03-17T02:51:57.403Z,67.24
2023-03-17T02:54:25.785Z,67.06
2023-03-17T02:56:54.081Z,67.51
2023-03-17T02:59:22.446Z,67.11
2023-03-17T03:01:51.035Z,67.01
2023-03-17T03:04:20.205Z,66.87
2023-03-17T03:06:48.834Z,66.89
2023-03-17T03:09:18.030Z,66.97
2023-03-17T03:11:46.317Z,66.77
2023-03-17T03:14:15.321Z,66.87
2023-03-17T03:16:44.003Z,66.51
2023-03-17T03:19:12.595Z,66.81
2023-03-17T03:21:40.974Z,66.70
2023-03-17T03:24:09.562Z,66.84
2023-03-17T03:26:37.648Z,66.53
2023-03-17T03:29:05.934Z,66.56
2023-03-17T03:31:34.206Z,67.04
2023-03-17T03:34:02.492Z,67.29
2023-03-17T03:36:30.567Z,68.00
2023-03-17T03:38:59.978Z,68.51
2023-03-17T03:41:28.257Z,69.27
2023-03-17T03:43:57.112Z,69.94
2023-03-17T03:46:26.860Z,70.71
2023-03-17T03:48:55.669Z,71.10
2023-03-17T03:51:23.839Z,71.23
2023-03-17T03:53:51.916Z,71.24
2023-03-17T03:56:19.996Z,71.67
2023-03-17T03:58:48.377Z,72.10
2023-03-17T04:01:16.558Z,72.06
2023-03-17T04:03:47.519Z,72.36
2023-03-17T04:06:16.455Z,72.37
2023-03-17T04:08:44.784Z,72.41
2023-03-17T04:11:13.469Z,72.43
2023-03-17T04:13:42.268Z,72.52
2023-03-17T04:16:10.679Z,72.74
2023-03-17T04:18:38.880Z,72.69
2023-03-17T04:21:08.459Z,72.68
2023-03-17T04:23:36.824Z,72.80
2023-03-17T04:26:06.082Z,72.90
2023-03-17T04:28:34.204Z,72.64
2023-03-17T04:31:02.519Z,72.58
2023-03-17T04:33:30.771Z,72.75
2023-03-17T04:35:58.889Z,72.62
2023-03-17T04:38:27.130Z,72.34
2023-03-17T04:40:55.413Z,72.28
2023-03-17T04:43:24.509Z,72.09
2023-03-17T04:45:53.341Z,71.78
2023-03-17T04:48:21.891Z,71.81
2023-03-17T04:50:50.278Z,71.88
2023-03-17T04:53:18.359Z,71.79
2023-03-17T04:55:46.647Z,71.51
2023-03-17T04:58:29.535Z,71.61
2023-03-17T05:00:59.088Z,71.34
2023-03-17T05:03:28.638Z,71.27
2023-03-17T05:05:58.084Z,71.01
2023-03-17T05:08:28.469Z,70.52
2023-03-17T05:10:57.717Z,69.95
2023-03-17T05:13:26.719Z,70.12
2023-03-17T05:15:55.819Z,70.08
2023-03-17T05:18:25.027Z,69.95
2023-03-17T05:20:53.333Z,69.98
2023-03-17T05:23:22.513Z,69.94
2023-03-17T05:25:51.205Z,69.65
2023-03-17T05:28:22.566Z,69.44
2023-03-17T05:30:51.206Z,69.11
2023-03-17T05:33:20.320Z,69.27
2023-03-17T05:35:48.889Z,69.33
2023-03-17T05:38:17.455Z,69.11
2023-03-17T05:40:45.930Z,69.04
2023-03-17T05:43:14.289Z,68.90
2023-03-17T05:45:43.337Z,68.88
2023-03-17T05:48:13.414Z,68.03
2023-03-17T05:50:41.931Z,68.04
2023-03-17T05:53:10.808Z,68.34
2023-03-17T05:55:39.180Z,67.84
2023-03-17T05:58:08.003Z,67.78
2023-03-17T06:00:37.901Z,68.13
2023-03-17T06:03:06.556Z,68.09
2023-03-17T06:05:35.187Z,67.54
2023-03-17T06:08:04.896Z,67.68
2023-03-17T06:10:33.661Z,67.29
2023-03-17T06:13:04.026Z,67.04
2023-03-17T06:15:34.251Z,66.74
2023-03-17T06:18:03.030Z,66.58
2023-03-17T06:20:32.546Z,66.56
2023-03-17T06:23:04.969Z,66.21
2023-03-17T06:25:34.722Z,66.24
2023-03-17T06:28:04.027Z,65.58
2023-03-17T06:30:33.210Z,65.34
2023-03-17T06:33:02.477Z,64.79
2023-03-17T06:35:31.294Z,64.72
2023-03-17T06:38:01.068Z,64.58
2023-03-17T06:40:29.638Z,64.70
2023-03-17T06:42:58.332Z,64.43
2023-03-17T06:45:27.028Z,63.60
2023-03-17T06:47:55.508Z,63.97
2023-03-17T06:50:23.714Z,63.44
2023-03-17T06:52:51.764Z,62.79
2023-03-17T06:55:20.158Z,63.21
2023-03-17T06:57:50.890Z,63.16
2023-03-17T07:00:20.179Z,62.85
2023-03-17T07:02:49.647Z,62.69
2023-03-17T07:05:18.074Z,62.89
2023-03-17T07:07:46.529Z,62.31
2023-03-17T07:10:16.067Z,62.21
2023-03-17T07:12:44.888Z,62.01
2023-03-17T07:15:13.483Z,61.44
2023-03-17T07:17:41.875Z,60.84
2023-03-17T07:20:11.997Z,60.28
2023-03-17T07:22:41.189Z,59.25
2023-03-17T07:25:09.972Z,59.14
2023-03-17T07:27:38.561Z,58.82
2023-03-17T07:30:07.668Z,58.39
2023-03-17T07:32:36.420Z,57.60
2023-03-17T07:35:05.325Z,57.54
2023-03-17T07:37:33.430Z,57.49
2023-03-17T07:40:01.716Z,57.51
2023-03-17T07:42:30.450Z,57.00
2023-03-17T07:44:58.722Z,55.53
2023-03-17T07:47:27.277Z,54.13
2023-03-17T07:49:55.610Z,54.27
2023-03-17T07:52:24.042Z,53.80
2023-03-17T07:54:53.234Z,53.57
2023-03-17T07:57:22.336Z,53.05
2023-03-17T07:59:51.054Z,52.69
2023-03-17T08:02:19.798Z,52.12
2023-03-17T08:04:48.449Z,52.28
2023-03-17T08:07:16.501Z,51.17
2023-03-17T08:09:44.786Z,51.22
2023-03-17T08:12:13.661Z,51.09
2023-03-17T08:14:41.954Z,49.83
2023-03-17T08:17:10.649Z,49.59
2023-03-17T08:19:39.039Z,50.09
2023-03-17T08:22:07.946Z,50.22
2023-03-17T08:24:37.354Z,49.58
2023-03-17T08:27:05.956Z,48.71
2023-03-17T08:29:34.118Z,48.24
2023-03-17T08:32:03.472Z,47.09
2023-03-17T08:34:32.000Z,46.59
2023-03-17T08:37:00.794Z,46.72
2023-03-17T08:39:29.961Z,45.17
2023-03-17T08:41:58.280Z,45.45
2023-03-17T08:44:26.665Z,45.41
2023-03-17T08:46:55.149Z,44.68
2023-03-17T08:49:23.737Z,42.65
2023-03-17T08:51:52.123Z,43.43
2023-03-17T08:54:20.311Z,43.44
2023-03-17T08:56:48.615Z,43.04
2023-03-17T08:59:17.030Z,41.50
2023-03-17T09:01:46.036Z,41.82
2023-03-17T09:04:18.854Z,41.51
2023-03-17T09:07:02.831Z,40.91
2023-03-17T09:09:33.746Z,39.91
2023-03-17T09:12:03.453Z,39.19
2023-03-17T09:14:42.584Z,38.39
2023-03-17T09:17:14.141Z,39.07
2023-03-17T09:19:43.830Z,37.85
2023-03-17T09:22:17.829Z,38.19
2023-03-17T09:24:46.944Z,37.77
2023-03-17T09:27:15.048Z,36.34
2023-03-17T09:30:11.061Z,35.47
2023-03-17T09:32:52.269Z,34.25
2023-03-17T09:35:21.236Z,32.07
2023-03-17T09:37:49.828Z,30.58
2023-03-17T09:40:19.851Z,29.77
2023-03-17T09:42:56.938Z,29.95
2023-03-17T09:45:31.667Z,29.52
2023-03-17T09:48:05.066Z,29.44
2023-03-17T09:50:48.790Z,28.67
2023-03-17T09:53:21.133Z,29.12
2023-03-17T09:55:53.146Z,27.29
2023-03-17T09:58:25.194Z,22.90
2023-03-17T10:00:53.382Z,22.17
2023-03-17T10:03:23.191Z,22.88
2023-03-17T10:05:51.425Z,22.20
2023-03-17T10:08:32.246Z,21.43
2023-03-17T10:11:09.117Z,21.78
2023-03-17T10:13:46.339Z,20.81
2023-03-17T10:16:43.833Z,21.39
2023-03-17T10:19:22.264Z,20.22
2023-03-17T10:21:54.305Z,20.75
2023-03-17T10:24:23.435Z,20.83
2023-03-17T10:26:53.456Z,21.31
2023-03-17T10:29:25.467Z,21.24
2023-03-17T10:31:58.287Z,21.22
2023-03-17T10:34:28.847Z,20.46
2023-03-17T10:37:08.802Z,19.52
2023-03-17T10:39:46.432Z,19.11
2023-03-17T10:42:28.182Z,18.10
2023-03-17T10:44:59.004Z,17.56
2023-03-17T10:47:59.849Z,18.05
2023-03-17T10:50:32.952Z,18.31
2023-03-17T10:53:01.527Z,18.35
2023-03-17T10:55:32.773Z,17.83
2023-03-17T10:58:03.842Z,19.27
2023-03-17T11:00:36.676Z,18.64
2023-03-17T11:03:15.102Z,18.37
2023-03-17T11:05:54.351Z,16.59
2023-03-17T11:08:23.449Z,16.20
2023-03-17T11:10:57.020Z,16.82
2023-03-17T11:13:29.631Z,17.66
2023-03-17T11:16:11.050Z,17.04
2023-03-17T11:18:40.110Z,16.67
2023-03-17T11:21:10.557Z,17.39
2023-03-17T11:23:53.478Z,17.87
2023-03-17T11:26:27.909Z,16.69
2023-03-17T11:29:16.332Z,17.27
2023-03-17T11:32:08.145Z,17.12
2023-03-17T11:34:59.490Z,17.54
2023-03-17T11:37:28.244Z,17.14
2023-03-17T11:40:15.360Z,17.15
2023-03-17T11:42:46.814Z,17.14
2023-03-17T11:45:26.042Z,17.34
2023-03-17T11:47:59.368Z,17.24
2023-03-17T11:50:28.151Z,17.29
2023-03-17T11:52:59.179Z,17.81
2023-03-17T11:55:42.398Z,17.82
2023-03-17T11:58:13.859Z,17.48
2023-03-17T12:00:46.239Z,17.35
2023-03-17T12:03:33.927Z,16.77
2023-03-17T12:06:05.620Z,17.17
2023-03-17T12:08:45.862Z,17.40
2023-03-17T12:11:17.406Z,17.77
2023-03-17T12:13:51.845Z,18.00
2023-03-17T12:16:25.959Z,18.11
2023-03-17T12:19:06.523Z,17.63
2023-03-17T12:21:42.398Z,17.57
2023-03-17T12:24:17.554Z,17.70
2023-03-17T12:26:52.241Z,17.87
2023-03-17T12:29:36.079Z,17.43
2023-03-17T12:32:08.555Z,17.58
2023-03-17T12:34:43.705Z,16.37
2023-03-17T12:37:14.845Z,15.99
2023-03-17T12:39:47.116Z,15.24
2023-03-17T12:42:25.262Z,15.38
2023-03-17T12:45:20.205Z,15.77
2023-03-17T12:48:22.059Z,15.78
2023-03-17T12:50:50.443Z,15.02
2023-03-17T12:53:21.589Z,14.38
2023-03-17T12:55:51.416Z,15.46
2023-03-17T12:58:29.627Z,15.96
2023-03-17T13:01:07.317Z,16.18
2023-03-17T13:03:39.218Z,16.21
2023-03-17T13:06:08.961Z,14.44
2023-03-17T13:08:41.287Z,13.85
2023-03-17T13:11:16.455Z,13.72
2023-03-17T13:13:47.345Z,13.08
2023-03-17T13:16:29.999Z,13.17
2023-03-17T13:19:19.323Z,13.82
2023-03-17T13:21:50.671Z,14.56
2023-03-17T13:24:20.692Z,14.95
2023-03-17T13:26:56.546Z,14.96
2023-03-17T13:29:33.957Z,14.72
2023-03-17T13:32:17.411Z,14.69
2023-03-17T13:34:48.576Z,14.93
2023-03-17T13:37:28.863Z,15.51
2023-03-17T13:39:56.961Z,15.88
2023-03-17T13:42:35.791Z,16.76
2023-03-17T13:45:16.671Z,17.54
2023-03-17T13:47:46.009Z,18.14
2023-03-17T13:50:33.717Z,17.98
2023-03-17T13:53:03.182Z,17.52
2023-03-17T13:55:35.338Z,15.84
2023-03-17T13:58:08.682Z,15.21
2023-03-17T14:00:39.945Z,14.35
2023-03-17T14:03:12.373Z,14.21
2023-03-17T14:05:41.167Z,14.45
2023-03-17T14:08:20.414Z,14.61
2023-03-17T14:10:55.841Z,14.59
2023-03-17T14:13:30.062Z,14.20
2023-03-17T14:15:58.894Z,13.48
2023-03-17T14:18:34.770Z,13.38
2023-03-17T14:21:09.419Z,12.55
2023-03-17T14:23:39.669Z,11.89
2023-03-17T14:26:11.025Z,11.28
2023-03-17T14:28:39.140Z,11.54
2023-03-17T14:31:08.258Z,12.16
2023-03-17T14:33:42.517Z,12.22
2023-03-17T14:36:14.346Z,11.67
2023-03-17T14:38:53.411Z,12.28
2023-03-17T14:41:23.219Z,13.21
2023-03-17T14:43:52.639Z,13.76
2023-03-17T14:46:23.056Z,14.91
2023-03-17T14:48:57.075Z,15.19
2023-03-17T14:51:28.528Z,14.96
2023-03-17T14:54:01.265Z,14.56
2023-03-17T14:56:36.246Z,14.06
2023-03-17T14:59:27.451Z,14.40
2023-03-17T15:02:31.196Z,14.32
2023-03-17T15:04:59.533Z,14.09
2023-03-17T15:07:30.984Z,14.79
2023-03-17T15:10:02.031Z,15.20
2023-03-17T15:12:31.436Z,16.00
2023-03-17T15:15:02.794Z,16.77
2023-03-17T15:17:33.734Z,17.48
2023-03-17T15:20:07.331Z,18.20
2023-03-17T15:22:35.713Z,18.45
2023-03-17T15:25:16.887Z,18.90
2023-03-17T15:27:45.688Z,19.58
2023-03-17T15:30:14.406Z,19.78
2023-03-17T15:32:42.704Z,20.09
2023-03-17T15:35:12.677Z,19.99
2023-03-17T15:37:41.739Z,20.27
2023-03-17T15:40:10.734Z,20.57
2023-03-17T15:42:40.002Z,20.96
2023-03-17T15:45:09.339Z,21.15
2023-03-17T15:47:40.169Z,21.64
2023-03-17T15:50:26.698Z,21.91
2023-03-17T15:52:58.178Z,22.27
2023-03-17T15:55:30.258Z,22.38
2023-03-17T15:57:59.104Z,22.56
2023-03-17T16:00:30.108Z,22.29
2023-03-17T16:03:06.744Z,22.62
2023-03-17T16:05:36.243Z,23.10
2023-03-17T16:08:04.448Z,23.40
2023-03-17T16:10:33.791Z,23.48
2023-03-17T16:13:02.249Z,23.86
2023-03-17T16:15:32.175Z,23.68
2023-03-17T16:18:10.674Z,23.77
2023-03-17T16:20:40.281Z,24.26
2023-03-17T16:23:27.303Z,24.18
2023-03-17T16:26:11.822Z,24.25
2023-03-17T16:28:43.672Z,24.77
2023-03-17T16:31:44.907Z,24.93
2023-03-17T16:34:17.329Z,26.02
2023-03-17T16:36:45.905Z,26.46
2023-03-17T16:39:18.862Z,27.36
2023-03-17T16:41:47.868Z,27.63
2023-03-17T16:44:17.238Z,28.12
2023-03-17T16:46:45.990Z,28.44
2023-03-17T16:49:18.780Z,28.75
2023-03-17T16:51:49.317Z,29.10
2023-03-17T16:54:17.809Z,29.27
2023-03-17T16:56:45.919Z,29.19
2023-03-17T16:59:18.968Z,29.49
2023-03-17T17:01:47.618Z,29.61
2023-03-17T17:04:16.257Z,29.54
2023-03-17T17:06:44.464Z,30.10
2023-03-17T17:09:12.611Z,29.81
2023-03-17T17:11:41.104Z,30.14
2023-03-17T17:14:10.013Z,30.62
2023-03-17T17:16:42.303Z,30.32
2023-03-17T17:19:15.908Z,30.87
2023-03-17T17:21:44.460Z,30.71
2023-03-17T17:24:13.669Z,30.91
2023-03-17T17:26:41.860Z,31.08
2023-03-17T17:29:10.148Z,30.88
2023-03-17T17:31:38.470Z,30.90
2023-03-17T17:34:07.427Z,31.19
2023-03-17T17:36:36.500Z,31.69
2023-03-17T17:39:04.799Z,31.90
2023-03-17T17:41:34.615Z,32.02
2023-03-17T17:44:03.735Z,32.59
2023-03-17T17:46:33.004Z,32.21
2023-03-17T17:49:01.393Z,32.14
2023-03-17T17:51:29.982Z,32.78
2023-03-17T17:53:58.706Z,33.28
2023-03-17T17:56:27.056Z,32.90
2023-03-17T17:58:55.240Z,32.55
2023-03-17T18:01:23.564Z,32.87
2023-03-17T18:03:51.798Z,33.15
2023-03-17T18:06:20.795Z,32.90
2023-03-17T18:08:52.659Z,33.06
2023-03-17T18:11:21.361Z,33.02
2023-03-17T18:13:50.050Z,33.05
2023-03-17T18:16:19.832Z,33.42
2023-03-17T18:18:48.879Z,33.53
2023-03-17T18:21:17.767Z,33.53
2023-03-17T18:23:49.955Z,33.86
2023-03-17T18:26:18.514Z,34.36
2023-03-17T18:28:47.988Z,34.56
2023-03-17T18:31:22.489Z,34.54
2023-03-17T18:33:53.907Z,35.24
2023-03-17T18:36:22.501Z,35.34
2023-03-17T18:38:51.710Z,35.92
2023-03-17T18:41:19.977Z,35.66
2023-03-17T18:43:48.253Z,36.57
2023-03-17T18:46:17.477Z,36.47
2023-03-17T18:48:45.741Z,36.28
2023-03-17T18:51:13.821Z,36.99
2023-03-17T18:53:41.998Z,36.97
2023-03-17T18:56:10.278Z,37.24
2023-03-17T18:58:38.664Z,37.29
2023-03-17T19:01:07.812Z,37.31
2023-03-17T19:03:36.738Z,37.49
2023-03-17T19:06:13.478Z,38.96
2023-03-17T19:08:42.209Z,39.65
2023-03-17T19:11:12.075Z,40.19
2023-03-17T19:13:40.435Z,39.80
2023-03-17T19:16:09.158Z,39.88
2023-03-17T19:18:41.888Z,41.26
2023-03-17T19:21:11.110Z,41.11
2023-03-17T19:23:40.118Z,42.22
2023-03-17T19:26:09.471Z,41.97
2023-03-17T19:28:37.590Z,41.70
2023-03-17T19:31:06.587Z,41.63
2023-03-17T19:33:35.072Z,42.35
2023-03-17T19:36:11.190Z,42.46
2023-03-17T19:38:39.532Z,42.36
2023-03-17T19:41:08.220Z,42.56
2023-03-17T19:43:41.283Z,42.07
2023-03-17T19:46:11.659Z,41.93
2023-03-17T19:48:40.852Z,41.93
2023-03-17T19:51:11.653Z,41.69
2023-03-17T19:53:39.637Z,42.00
2023-03-17T19:56:08.033Z,41.87
2023-03-17T19:58:36.429Z,42.00
2023-03-17T20:01:05.410Z,42.05
2023-03-17T20:03:34.220Z,42.09
2023-03-17T20:06:06.191Z,42.36
2023-03-17T20:08:35.861Z,42.41
2023-03-17T20:11:06.110Z,42.48
2023-03-17T20:13:35.034Z,42.53
2023-03-17T20:16:03.941Z,42.69
2023-03-17T20:18:32.302Z,42.92
2023-03-17T20:21:01.770Z,43.36
2023-03-17T20:23:29.985Z,43.52
2023-03-17T20:25:58.376Z,43.42
2023-03-17T20:28:27.737Z,43.87
2023-03-17T20:31:00.100Z,43.91
2023-03-17T20:33:28.442Z,44.16
2023-03-17T20:35:56.745Z,44.01
2023-03-17T20:38:25.800Z,44.33
2023-03-17T20:40:53.994Z,44.51
2023-03-17T20:43:22.891Z,44.19
2023-03-17T20:45:53.422Z,44.35
2023-03-17T20:48:23.344Z,44.83
2023-03-17T20:50:51.530Z,45.18
2023-03-17T20:53:19.806Z,45.33
2023-03-17T20:55:48.188Z,44.96
2023-03-17T20:58:16.371Z,44.54
2023-03-17T21:00:45.060Z,44.55
2023-03-17T21:03:13.200Z,44.80
2023-03-17T21:05:42.545Z,44.61
2023-03-17T21:08:11.648Z,44.77
2023-03-17T21:10:39.925Z,44.69
2023-03-17T21:13:09.151Z,44.17
2023-03-17T21:15:37.413Z,44.45
2023-03-17T21:18:06.209Z,44.46
2023-03-17T21:20:34.392Z,44.30
2023-03-17T21:23:04.815Z,44.84
2023-03-17T21:25:33.402Z,44.75
2023-03-17T21:28:01.693Z,44.71
2023-03-17T21:30:30.264Z,44.50
2023-03-17T21:33:00.467Z,44.52
2023-03-17T21:35:30.737Z,44.85
2023-03-17T21:37:59.040Z,44.53
2023-03-17T21:40:27.810Z,44.31
2023-03-17T21:42:56.512Z,44.60
2023-03-17T21:45:25.339Z,44.26
2023-03-17T21:47:54.565Z,44.36
2023-03-17T21:50:23.272Z,44.16
2023-03-17T21:52:51.615Z,44.34
2023-03-17T21:55:20.062Z,44.33
2023-03-17T21:57:48.239Z,43.91
2023-03-17T22:00:17.487Z,44.42
2023-03-17T22:02:46.051Z,44.42
2023-03-17T22:05:14.520Z,44.67
2023-03-17T22:07:44.022Z,45.16
2023-03-17T22:10:12.212Z,45.20
2023-03-17T22:12:40.897Z,45.10
2023-03-17T22:15:10.458Z,45.18
2023-03-17T22:17:39.912Z,45.23
2023-03-17T22:20:09.164Z,45.69
2023-03-17T22:22:37.437Z,46.29
2023-03-17T22:25:06.956Z,46.78
2023-03-17T22:27:35.189Z,46.91
2023-03-17T22:30:04.090Z,46.50
2023-03-17T22:32:32.519Z,45.42
2023-03-17T22:35:00.859Z,45.46
2023-03-17T22:37:29.245Z,45.43
2023-03-17T22:40:02.646Z,45.33
2023-03-17T22:42:31.338Z,45.20
2023-03-17T22:44:59.923Z,45.42
2023-03-17T22:47:27.999Z,45.37
2023-03-17T22:49:56.491Z,45.62
2023-03-17T22:52:24.777Z,45.55
2023-03-17T22:54:52.865Z,45.77
2023-03-17T22:57:20.925Z,45.85
2023-03-17T22:59:49.101Z,45.83
2023-03-17T23:02:18.569Z,45.96
2023-03-17T23:04:46.998Z,46.28
2023-03-17T23:07:16.609Z,46.26
2023-03-17T23:09:45.508Z,46.24
2023-03-17T23:12:13.993Z,46.12
2023-03-17T23:14:42.495Z,46.31
2023-03-17T23:17:10.763Z,46.40
2023-03-17T23:19:39.251Z,46.26
2023-03-17T23:22:08.143Z,46.41
2023-03-17T23:24:36.229Z,46.22
2023-03-17T23:27:04.710Z,46.19
2023-03-17T23:29:32.991Z,46.16
2023-03-17T23:32:01.376Z,45.91
2023-03-17T23:34:29.932Z,45.84
2023-03-17T23:36:58.151Z,45.92
2023-03-17T23:39:26.429Z,45.87
2023-03-17T23:41:55.138Z,46.06
2023-03-17T23:44:23.802Z,45.84
2023-03-17T23:46:52.595Z,45.73
2023-03-17T23:49:21.077Z,45.43
2023-03-17T23:51:49.469Z,45.15
2023-03-17T23:54:17.547Z,45.25
2023-03-17T23:56:45.826Z,44.87
2023-03-17T23:59:14.006Z,45.02
